sensor_id;sensor_type;location;lat;lon;timestamp;P1;durP1;ratioP1;P2;durP2;ratioP2
43413;SDS011;29013;49.676;8.606;2023-04-06T00:05:05;1.34;;;1.33;;
43413;SDS011;29013;49.676;8.606;2023-04-06T00:10:32;0.76;;;0.78;;
43413;SDS011;29013;49.676;8.606;2023-04-06T00:15:57;1.65;;;0.88;;
43413;SDS011;29013;49.676;8.606;2023-04-06T00:21:22;0.53;;;0.58;;
43413;SDS011;29013;49.676;8.606;2023-04-06T00:27:39;1.9;;;1.24;;
43413;SDS011;29013;49.676;8.606;2023-04-06T00:33:03;0.63;;;0.59;;
43413;SDS011;29013;49.676;8.606;2023-04-06T00:38:27;0.49;;;0.48;;
43413;SDS011;29013;49.676;8.606;2023-04-06T00:43:53;0.33;;;0.38;;
43413;SDS011;29013;49.676;8.606;2023-04-06T00:49:19;0.99;;;1.0;;
43413;SDS011;29013;49.676;8.606;2023-04-06T00:55:09;1.8;;;0.89;;
43413;SDS011;29013;49.676;8.606;2023-04-06T01:00:34;1.19;;;0.87;;
43413;SDS011;29013;49.676;8.606;2023-04-06T01:06:02;0.71;;;0.77;;
43413;SDS011;29013;49.676;8.606;2023-04-06T01:11:29;1.55;;;1.13;;
43413;SDS011;29013;49.676;8.606;2023-04-06T01:16:57;2.13;;;1.07;;
43413;SDS011;29013;49.676;8.606;2023-04-06T01:22:21;0.47;;;0.55;;
43413;SDS011;29013;49.676;8.606;2023-04-06T01:27:43;1.21;;;1.06;;
43413;SDS011;29013;49.676;8.606;2023-04-06T01:33:09;3.27;;;1.12;;
43413;SDS011;29013;49.676;8.606;2023-04-06T01:38:36;1.64;;;1.11;;
43413;SDS011;29013;49.676;8.606;2023-04-06T01:44:01;2.33;;;1.17;;
43413;SDS011;29013;49.676;8.606;2023-04-06T01:49:24;1.34;;;0.62;;
43413;SDS011;29013;49.676;8.606;2023-04-06T01:54:46;0.93;;;1.04;;
43413;SDS011;29013;49.676;8.606;2023-04-06T02:00:14;1.66;;;0.71;;
43413;SDS011;29013;49.676;8.606;2023-04-06T02:05:41;0.56;;;0.57;;
43413;SDS011;29013;49.676;8.606;2023-04-06T02:11:06;0.65;;;0.55;;
43413;SDS011;29013;49.676;8.606;2023-04-06T02:16:31;0.63;;;0.61;;
43413;SDS011;29013;49.676;8.606;2023-04-06T02:21:59;1.02;;;0.94;;
43413;SDS011;29013;49.676;8.606;2023-04-06T02:27:24;0.75;;;0.63;;
43413;SDS011;29013;49.676;8.606;2023-04-06T02:32:50;0.97;;;1.04;;
43413;SDS011;29013;49.676;8.606;2023-04-06T02:38:15;0.72;;;0.79;;
43413;SDS011;29013;49.676;8.606;2023-04-06T02:43:40;0.86;;;0.83;;
43413;SDS011;29013;49.676;8.606;2023-04-06T02:49:06;1.53;;;0.87;;
43413;SDS011;29013;49.676;8.606;2023-04-06T02:54:28;0.76;;;0.68;;
43413;SDS011;29013;49.676;8.606;2023-04-06T02:59:51;0.31;;;0.37;;
43413;SDS011;29013;49.676;8.606;2023-04-06T03:05:17;1.11;;;0.75;;
43413;SDS011;29013;49.676;8.606;2023-04-06T03:11:07;1.83;;;0.91;;
43413;SDS011;29013;49.676;8.606;2023-04-06T03:16:31;1.8;;;0.87;;
43413;SDS011;29013;49.676;8.606;2023-04-06T03:21:56;1.01;;;0.47;;
43413;SDS011;29013;49.676;8.606;2023-04-06T03:27:20;0.93;;;0.99;;
43413;SDS011;29013;49.676;8.606;2023-04-06T03:32:47;0.88;;;0.71;;
43413;SDS011;29013;49.676;8.606;2023-04-06T03:38:13;0.5;;;0.61;;
43413;SDS011;29013;49.676;8.606;2023-04-06T03:43:35;0.77;;;0.53;;
43413;SDS011;29013;49.676;8.606;2023-04-06T03:49:02;0.71;;;0.79;;
43413;SDS011;29013;49.676;8.606;2023-04-06T03:54:23;2.19;;;1.16;;
43413;SDS011;29013;49.676;8.606;2023-04-06T03:59:50;1.86;;;0.92;;
43413;SDS011;29013;49.676;8.606;2023-04-06T04:05:13;0.47;;;0.49;;
43413;SDS011;29013;49.676;8.606;2023-04-06T04:10:37;0.53;;;0.61;;
43413;SDS011;29013;49.676;8.606;2023-04-06T04:15:59;1.04;;;0.92;;
43413;SDS011;29013;49.676;8.606;2023-04-06T04:21:29;0.96;;;0.75;;
43413;SDS011;29013;49.676;8.606;2023-04-06T04:26:53;0.77;;;0.83;;
43413;SDS011;29013;49.676;8.606;2023-04-06T04:32:15;0.32;;;0.39;;
43413;SDS011;29013;49.676;8.606;2023-04-06T04:37:42;2.24;;;0.86;;
43413;SDS011;29013;49.676;8.606;2023-04-06T04:43:08;1.42;;;0.98;;
43413;SDS011;29013;49.676;8.606;2023-04-06T04:48:39;1.25;;;1.08;;
43413;SDS011;29013;49.676;8.606;2023-04-06T04:54:11;0.74;;;0.39;;
43413;SDS011;29013;49.676;8.606;2023-04-06T04:59:35;0.46;;;0.56;;
43413;SDS011;29013;49.676;8.606;2023-04-06T05:05:00;3.55;;;1.2;;
43413;SDS011;29013;49.676;8.606;2023-04-06T05:10:28;1.19;;;1.06;;
43413;SDS011;29013;49.676;8.606;2023-04-06T05:15:51;1.56;;;1.16;;
43413;SDS011;29013;49.676;8.606;2023-04-06T05:21:16;0.67;;;0.68;;
43413;SDS011;29013;49.676;8.606;2023-04-06T05:26:40;0.63;;;0.77;;
43413;SDS011;29013;49.676;8.606;2023-04-06T05:32:06;0.54;;;0.62;;
43413;SDS011;29013;49.676;8.606;2023-04-06T05:37:30;1.18;;;1.35;;
43413;SDS011;29013;49.676;8.606;2023-04-06T05:43:11;2.2;;;1.04;;
43413;SDS011;29013;49.676;8.606;2023-04-06T05:48:34;2.48;;;1.5;;
43413;SDS011;29013;49.676;8.606;2023-04-06T05:53:59;5.1;;;1.65;;
43413;SDS011;29013;49.676;8.606;2023-04-06T05:59:22;0.92;;;1.02;;
43413;SDS011;29013;49.676;8.606;2023-04-06T06:04:47;1.08;;;1.22;;
43413;SDS011;29013;49.676;8.606;2023-04-06T06:10:11;1.84;;;1.12;;
43413;SDS011;29013;49.676;8.606;2023-04-06T06:15:34;1.83;;;0.84;;
43413;SDS011;29013;49.676;8.606;2023-04-06T06:21:00;1.67;;;1.44;;
43413;SDS011;29013;49.676;8.606;2023-04-06T06:26:24;0.7;;;0.82;;
43413;SDS011;29013;49.676;8.606;2023-04-06T06:31:49;1.52;;;1.23;;
43413;SDS011;29013;49.676;8.606;2023-04-06T06:37:12;1.0;;;1.1;;
43413;SDS011;29013;49.676;8.606;2023-04-06T06:42:34;1.91;;;1.23;;
43413;SDS011;29013;49.676;8.606;2023-04-06T06:47:58;1.32;;;1.01;;
43413;SDS011;29013;49.676;8.606;2023-04-06T06:53:38;1.54;;;1.23;;
43413;SDS011;29013;49.676;8.606;2023-04-06T06:59:01;1.74;;;0.56;;
43413;SDS011;29013;49.676;8.606;2023-04-06T07:04:26;1.03;;;1.16;;
43413;SDS011;29013;49.676;8.606;2023-04-06T07:09:49;0.84;;;0.68;;
43413;SDS011;29013;49.676;8.606;2023-04-06T07:15:15;1.71;;;1.51;;
43413;SDS011;29013;49.676;8.606;2023-04-06T07:20:40;1.37;;;1.03;;
43413;SDS011;29013;49.676;8.606;2023-04-06T07:26:04;1.84;;;1.46;;
43413;SDS011;29013;49.676;8.606;2023-04-06T07:31:25;2.04;;;0.97;;
43413;SDS011;29013;49.676;8.606;2023-04-06T07:36:51;2.41;;;1.8;;
43413;SDS011;29013;49.676;8.606;2023-04-06T07:42:13;4.36;;;2.24;;
43413;SDS011;29013;49.676;8.606;2023-04-06T07:47:38;1.22;;;0.93;;
43413;SDS011;29013;49.676;8.606;2023-04-06T07:53:01;1.54;;;1.13;;
43413;SDS011;29013;49.676;8.606;2023-04-06T07:58:27;1.79;;;1.2;;
43413;SDS011;29013;49.676;8.606;2023-04-06T08:03:50;2.89;;;1.61;;
43413;SDS011;29013;49.676;8.606;2023-04-06T08:09:16;3.41;;;1.72;;
43413;SDS011;29013;49.676;8.606;2023-04-06T08:14:40;2.74;;;1.48;;
43413;SDS011;29013;49.676;8.606;2023-04-06T08:20:02;1.69;;;1.34;;
43413;SDS011;29013;49.676;8.606;2023-04-06T08:25:26;2.71;;;1.52;;
43413;SDS011;29013;49.676;8.606;2023-04-06T08:30:49;4.26;;;2.08;;
43413;SDS011;29013;49.676;8.606;2023-04-06T08:36:13;0.89;;;0.86;;
43413;SDS011;29013;49.676;8.606;2023-04-06T08:41:35;2.73;;;2.06;;
43413;SDS011;29013;49.676;8.606;2023-04-06T08:46:59;1.0;;;1.05;;
43413;SDS011;29013;49.676;8.606;2023-04-06T08:52:22;2.56;;;1.55;;
43413;SDS011;29013;49.676;8.606;2023-04-06T08:57:47;2.17;;;1.52;;
43413;SDS011;29013;49.676;8.606;2023-04-06T09:03:10;1.78;;;1.67;;
43413;SDS011;29013;49.676;8.606;2023-04-06T09:08:35;2.57;;;1.44;;
43413;SDS011;29013;49.676;8.606;2023-04-06T09:13:58;1.84;;;1.49;;
43413;SDS011;29013;49.676;8.606;2023-04-06T09:19:22;4.49;;;2.01;;
43413;SDS011;29013;49.676;8.606;2023-04-06T09:24:46;3.24;;;2.18;;
43413;SDS011;29013;49.676;8.606;2023-04-06T09:30:55;3.9;;;2.3;;
43413;SDS011;29013;49.676;8.606;2023-04-06T09:36:19;2.48;;;1.64;;
43413;SDS011;29013;49.676;8.606;2023-04-06T09:41:50;1.57;;;1.48;;
43413;SDS011;29013;49.676;8.606;2023-04-06T09:47:10;2.91;;;1.57;;
43413;SDS011;29013;49.676;8.606;2023-04-06T09:52:37;1.74;;;1.54;;
43413;SDS011;29013;49.676;8.606;2023-04-06T09:58:03;2.07;;;1.5;;
43413;SDS011;29013;49.676;8.606;2023-04-06T10:03:45;2.05;;;1.66;;
43413;SDS011;29013;49.676;8.606;2023-04-06T10:09:09;3.12;;;2.05;;
43413;SDS011;29013;49.676;8.606;2023-04-06T10:14:34;4.33;;;2.01;;
43413;SDS011;29013;49.676;8.606;2023-04-06T10:19:59;2.17;;;1.71;;
43413;SDS011;29013;49.676;8.606;2023-04-06T10:25:27;2.9;;;1.71;;
43413;SDS011;29013;49.676;8.606;2023-04-06T10:31:11;3.14;;;1.68;;
43413;SDS011;29013;49.676;8.606;2023-04-06T10:36:36;2.07;;;1.18;;
43413;SDS011;29013;49.676;8.606;2023-04-06T10:42:07;2.21;;;1.5;;
43413;SDS011;29013;49.676;8.606;2023-04-06T10:48:04;4.0;;;1.85;;
43413;SDS011;29013;49.676;8.606;2023-04-06T10:53:54;2.45;;;1.7;;
43413;SDS011;29013;49.676;8.606;2023-04-06T10:59:19;3.53;;;1.84;;
43413;SDS011;29013;49.676;8.606;2023-04-06T11:04:44;4.05;;;1.97;;
43413;SDS011;29013;49.676;8.606;2023-04-06T11:10:20;3.62;;;2.06;;
43413;SDS011;29013;49.676;8.606;2023-04-06T11:15:41;3.84;;;2.55;;
43413;SDS011;29013;49.676;8.606;2023-04-06T11:21:05;5.0;;;1.99;;
43413;SDS011;29013;49.676;8.606;2023-04-06T11:26:31;3.77;;;1.74;;
43413;SDS011;29013;49.676;8.606;2023-04-06T11:32:00;1.68;;;1.0;;
43413;SDS011;29013;49.676;8.606;2023-04-06T11:37:18;11.94;;;1.8;;
43413;SDS011;29013;49.676;8.606;2023-04-06T11:42:41;1.87;;;1.15;;
43413;SDS011;29013;49.676;8.606;2023-04-06T11:48:18;2.2;;;0.91;;
43413;SDS011;29013;49.676;8.606;2023-04-06T11:53:44;3.31;;;1.57;;
43413;SDS011;29013;49.676;8.606;2023-04-06T11:59:08;2.15;;;1.51;;
43413;SDS011;29013;49.676;8.606;2023-04-06T12:04:34;1.94;;;1.31;;
43413;SDS011;29013;49.676;8.606;2023-04-06T12:10:24;3.05;;;1.62;;
43413;SDS011;29013;49.676;8.606;2023-04-06T12:15:46;3.15;;;1.57;;
43413;SDS011;29013;49.676;8.606;2023-04-06T12:21:12;2.27;;;1.59;;
43413;SDS011;29013;49.676;8.606;2023-04-06T12:26:38;2.34;;;1.28;;
43413;SDS011;29013;49.676;8.606;2023-04-06T12:32:02;6.24;;;2.15;;
43413;SDS011;29013;49.676;8.606;2023-04-06T12:37:24;2.66;;;1.63;;
43413;SDS011;29013;49.676;8.606;2023-04-06T12:42:50;4.84;;;1.87;;
43413;SDS011;29013;49.676;8.606;2023-04-06T12:48:15;3.71;;;1.49;;
43413;SDS011;29013;49.676;8.606;2023-04-06T12:53:41;2.15;;;1.76;;
43413;SDS011;29013;49.676;8.606;2023-04-06T12:59:08;4.19;;;1.66;;
43413;SDS011;29013;49.676;8.606;2023-04-06T13:05:00;4.27;;;2.2;;
43413;SDS011;29013;49.676;8.606;2023-04-06T13:10:25;3.03;;;1.9;;
43413;SDS011;29013;49.676;8.606;2023-04-06T13:15:51;3.76;;;1.55;;
43413;SDS011;29013;49.676;8.606;2023-04-06T13:21:15;2.7;;;1.58;;
43413;SDS011;29013;49.676;8.606;2023-04-06T13:27:04;3.06;;;2.01;;
43413;SDS011;29013;49.676;8.606;2023-04-06T13:32:30;4.84;;;1.8;;
43413;SDS011;29013;49.676;8.606;2023-04-06T13:37:55;2.04;;;1.55;;
43413;SDS011;29013;49.676;8.606;2023-04-06T13:43:22;6.99;;;2.32;;
43413;SDS011;29013;49.676;8.606;2023-04-06T13:48:47;1.99;;;1.71;;
43413;SDS011;29013;49.676;8.606;2023-04-06T13:54:13;3.26;;;2.15;;
43413;SDS011;29013;49.676;8.606;2023-04-06T13:59:38;5.04;;;1.65;;
43413;SDS011;29013;49.676;8.606;2023-04-06T14:05:05;2.88;;;1.51;;
43413;SDS011;29013;49.676;8.606;2023-04-06T14:11:11;5.37;;;2.51;;
43413;SDS011;29013;49.676;8.606;2023-04-06T14:16:28;5.57;;;2.4;;
43413;SDS011;29013;49.676;8.606;2023-04-06T14:21:54;3.97;;;1.71;;
43413;SDS011;29013;49.676;8.606;2023-04-06T14:27:18;4.73;;;2.14;;
43413;SDS011;29013;49.676;8.606;2023-04-06T14:32:43;3.76;;;1.6;;
43413;SDS011;29013;49.676;8.606;2023-04-06T14:38:10;4.0;;;1.97;;
43413;SDS011;29013;49.676;8.606;2023-04-06T14:43:35;1.86;;;1.34;;
43413;SDS011;29013;49.676;8.606;2023-04-06T14:49:01;2.71;;;1.36;;
43413;SDS011;29013;49.676;8.606;2023-04-06T14:54:26;2.76;;;1.41;;
43413;SDS011;29013;49.676;8.606;2023-04-06T15:00:12;2.78;;;1.6;;
43413;SDS011;29013;49.676;8.606;2023-04-06T15:05:32;3.94;;;1.25;;
43413;SDS011;29013;49.676;8.606;2023-04-06T15:10:58;2.49;;;1.4;;
43413;SDS011;29013;49.676;8.606;2023-04-06T15:16:23;3.04;;;1.46;;
43413;SDS011;29013;49.676;8.606;2023-04-06T15:21:47;2.63;;;1.36;;
43413;SDS011;29013;49.676;8.606;2023-04-06T15:27:14;1.71;;;0.95;;
43413;SDS011;29013;49.676;8.606;2023-04-06T15:32:37;2.65;;;1.32;;
43413;SDS011;29013;49.676;8.606;2023-04-06T15:38:02;2.79;;;1.34;;
43413;SDS011;29013;49.676;8.606;2023-04-06T15:43:25;2.91;;;1.13;;
43413;SDS011;29013;49.676;8.606;2023-04-06T15:49:16;4.89;;;2.07;;
43413;SDS011;29013;49.676;8.606;2023-04-06T15:54:41;2.6;;;1.45;;
43413;SDS011;29013;49.676;8.606;2023-04-06T16:00:02;3.66;;;1.57;;
43413;SDS011;29013;49.676;8.606;2023-04-06T16:05:29;2.74;;;1.62;;
43413;SDS011;29013;49.676;8.606;2023-04-06T16:10:54;2.07;;;1.2;;
43413;SDS011;29013;49.676;8.606;2023-04-06T16:16:20;2.38;;;1.41;;
43413;SDS011;29013;49.676;8.606;2023-04-06T16:21:46;3.02;;;1.09;;
43413;SDS011;29013;49.676;8.606;2023-04-06T16:27:26;2.45;;;1.3;;
43413;SDS011;29013;49.676;8.606;2023-04-06T16:32:51;1.46;;;1.07;;
43413;SDS011;29013;49.676;8.606;2023-04-06T16:38:16;4.25;;;1.33;;
43413;SDS011;29013;49.676;8.606;2023-04-06T16:43:38;1.9;;;0.91;;
43413;SDS011;29013;49.676;8.606;2023-04-06T16:49:03;2.51;;;0.9;;
43413;SDS011;29013;49.676;8.606;2023-04-06T16:54:24;3.14;;;1.34;;
43413;SDS011;29013;49.676;8.606;2023-04-06T17:00:18;2.06;;;1.14;;
43413;SDS011;29013;49.676;8.606;2023-04-06T17:05:41;1.26;;;0.72;;
43413;SDS011;29013;49.676;8.606;2023-04-06T17:11:05;1.77;;;0.83;;
43413;SDS011;29013;49.676;8.606;2023-04-06T17:16:30;1.37;;;0.77;;
43413;SDS011;29013;49.676;8.606;2023-04-06T17:21:56;2.72;;;1.04;;
43413;SDS011;29013;49.676;8.606;2023-04-06T17:27:20;1.42;;;0.75;;
43413;SDS011;29013;49.676;8.606;2023-04-06T17:32:46;2.29;;;1.09;;
43413;SDS011;29013;49.676;8.606;2023-04-06T17:38:12;1.76;;;0.64;;
43413;SDS011;29013;49.676;8.606;2023-04-06T17:43:36;0.62;;;0.54;;
43413;SDS011;29013;49.676;8.606;2023-04-06T17:49:01;2.09;;;1.01;;
43413;SDS011;29013;49.676;8.606;2023-04-06T17:54:25;1.22;;;0.86;;
43413;SDS011;29013;49.676;8.606;2023-04-06T18:00:11;2.09;;;1.12;;
43413;SDS011;29013;49.676;8.606;2023-04-06T18:06:13;2.03;;;1.0;;
43413;SDS011;29013;49.676;8.606;2023-04-06T18:11:33;1.81;;;0.96;;
43413;SDS011;29013;49.676;8.606;2023-04-06T18:17:15;5.44;;;1.13;;
43413;SDS011;29013;49.676;8.606;2023-04-06T18:22:36;1.61;;;0.88;;
43413;SDS011;29013;49.676;8.606;2023-04-06T18:28:01;1.86;;;1.02;;
43413;SDS011;29013;49.676;8.606;2023-04-06T18:33:24;0.98;;;0.86;;
43413;SDS011;29013;49.676;8.606;2023-04-06T18:38:49;3.3;;;1.19;;
43413;SDS011;29013;49.676;8.606;2023-04-06T18:44:14;2.65;;;1.14;;
43413;SDS011;29013;49.676;8.606;2023-04-06T18:49:39;1.75;;;0.98;;
43413;SDS011;29013;49.676;8.606;2023-04-06T18:55:07;0.64;;;0.73;;
43413;SDS011;29013;49.676;8.606;2023-04-06T19:00:58;3.45;;;1.45;;
43413;SDS011;29013;49.676;8.606;2023-04-06T19:06:21;1.51;;;1.32;;
43413;SDS011;29013;49.676;8.606;2023-04-06T19:12:22;2.39;;;1.56;;
43413;SDS011;29013;49.676;8.606;2023-04-06T19:17:46;0.8;;;0.8;;
43413;SDS011;29013;49.676;8.606;2023-04-06T19:23:16;0.65;;;0.66;;
43413;SDS011;29013;49.676;8.606;2023-04-06T19:28:40;0.99;;;0.67;;
43413;SDS011;29013;49.676;8.606;2023-04-06T19:34:03;1.86;;;0.93;;
43413;SDS011;29013;49.676;8.606;2023-04-06T19:39:22;3.53;;;1.16;;
43413;SDS011;29013;49.676;8.606;2023-04-06T19:44:45;2.16;;;1.16;;
43413;SDS011;29013;49.676;8.606;2023-04-06T19:50:10;0.95;;;0.9;;
43413;SDS011;29013;49.676;8.606;2023-04-06T19:55:35;1.45;;;1.16;;
43413;SDS011;29013;49.676;8.606;2023-04-06T20:01:13;2.03;;;1.36;;
43413;SDS011;29013;49.676;8.606;2023-04-06T20:06:35;2.83;;;1.44;;
43413;SDS011;29013;49.676;8.606;2023-04-06T20:11:58;1.24;;;1.02;;
43413;SDS011;29013;49.676;8.606;2023-04-06T20:17:24;1.3;;;1.23;;
43413;SDS011;29013;49.676;8.606;2023-04-06T20:22:48;1.39;;;1.2;;
43413;SDS011;29013;49.676;8.606;2023-04-06T20:28:14;2.25;;;1.2;;
43413;SDS011;29013;49.676;8.606;2023-04-06T20:33:37;3.51;;;2.02;;
43413;SDS011;29013;49.676;8.606;2023-04-06T20:39:01;1.36;;;1.4;;
43413;SDS011;29013;49.676;8.606;2023-04-06T20:44:53;3.12;;;1.99;;
43413;SDS011;29013;49.676;8.606;2023-04-06T20:50:17;3.22;;;1.52;;
43413;SDS011;29013;49.676;8.606;2023-04-06T20:55:43;1.36;;;1.28;;
43413;SDS011;29013;49.676;8.606;2023-04-06T21:01:12;3.96;;;1.48;;
43413;SDS011;29013;49.676;8.606;2023-04-06T21:06:30;1.25;;;1.33;;
43413;SDS011;29013;49.676;8.606;2023-04-06T21:11:58;2.36;;;1.61;;
43413;SDS011;29013;49.676;8.606;2023-04-06T21:17:28;1.9;;;1.56;;
43413;SDS011;29013;49.676;8.606;2023-04-06T21:23:09;2.64;;;1.88;;
43413;SDS011;29013;49.676;8.606;2023-04-06T21:28:32;3.6;;;1.68;;
43413;SDS011;29013;49.676;8.606;2023-04-06T21:34:00;1.94;;;1.42;;
43413;SDS011;29013;49.676;8.606;2023-04-06T21:39:25;1.21;;;1.01;;
43413;SDS011;29013;49.676;8.606;2023-04-06T21:44:52;1.95;;;1.65;;
43413;SDS011;29013;49.676;8.606;2023-04-06T21:50:17;1.59;;;1.36;;
43413;SDS011;29013;49.676;8.606;2023-04-06T21:56:00;2.75;;;1.81;;
43413;SDS011;29013;49.676;8.606;2023-04-06T22:01:24;2.98;;;1.47;;
43413;SDS011;29013;49.676;8.606;2023-04-06T22:06:50;2.32;;;1.36;;
43413;SDS011;29013;49.676;8.606;2023-04-06T22:12:15;1.88;;;1.74;;
43413;SDS011;29013;49.676;8.606;2023-04-06T22:17:38;3.03;;;1.71;;
43413;SDS011;29013;49.676;8.606;2023-04-06T22:23:02;2.13;;;1.59;;
43413;SDS011;29013;49.676;8.606;2023-04-06T22:28:23;2.31;;;1.56;;
43413;SDS011;29013;49.676;8.606;2023-04-06T22:33:49;1.53;;;1.26;;
43413;SDS011;29013;49.676;8.606;2023-04-06T22:39:14;2.4;;;1.92;;
43413;SDS011;29013;49.676;8.606;2023-04-06T22:44:40;2.14;;;1.47;;
43413;SDS011;29013;49.676;8.606;2023-04-06T22:50:03;2.42;;;1.33;;
43413;SDS011;29013;49.676;8.606;2023-04-06T22:55:29;2.35;;;1.4;;
43413;SDS011;29013;49.676;8.606;2023-04-06T23:00:54;2.45;;;1.51;;
43413;SDS011;29013;49.676;8.606;2023-04-06T23:06:19;1.3;;;0.93;;
43413;SDS011;29013;49.676;8.606;2023-04-06T23:12:12;3.51;;;1.95;;
43413;SDS011;29013;49.676;8.606;2023-04-06T23:17:38;1.68;;;1.32;;
43413;SDS011;29013;49.676;8.606;2023-04-06T23:23:03;2.46;;;1.52;;
43413;SDS011;29013;49.676;8.606;2023-04-06T23:28:25;1.62;;;1.0;;
43413;SDS011;29013;49.676;8.606;2023-04-06T23:34:22;3.36;;;1.95;;
43413;SDS011;29013;49.676;8.606;2023-04-06T23:39:45;2.03;;;1.3;;
43413;SDS011;29013;49.676;8.606;2023-04-06T23:45:08;1.71;;;1.08;;
43413;SDS011;29013;49.676;8.606;2023-04-06T23:50:33;1.03;;;0.97;;
43413;SDS011;29013;49.676;8.606;2023-04-06T23:55:57;0.98;;;0.83;;
